SWA657 KLAS-KSEA
Flight info
| Callsign | SWA657 |
|---|---|
| Flight time | 2h 11m |
| Altitude | 34000 |
| Route | JOHKR5 KENNO LOMIA LKV HAWKZ8 |
| Aircraft | B38M/M-SDE1FGHILORVWXY/HB1 |
Departure
| Time | 2026-05-06 09:34 |
|---|---|
| Airport | Harry Reid International Airport (KLAS) |
Arrival
| Time | 2026-05-06 11:46 |
|---|---|
| Airport | Seattle–Tacoma International Airport (KSEA) |
| Time | Latitude | Longitude | Altitude | Speed | Heading |
|---|---|---|---|---|---|
| 2026-05-06 09:09 | 36.08156 | -115.14629 | 2100 ft | 0 kts | 254° |
| 2026-05-06 09:10 | 36.08156 | -115.14632 | 2100 ft | 0 kts | 254° |
| 2026-05-06 09:24 | 36.08157 | -115.14629 | 2100 ft | 1 kts | 254° |
| 2026-05-06 09:24 | 36.08162 | -115.14608 | 2100 ft | 3 kts | 253° |
| 2026-05-06 09:24 | 36.08168 | -115.14584 | 2100 ft | 3 kts | 251° |
| 2026-05-06 09:25 | 36.08175 | -115.14561 | 2100 ft | 3 kts | 249° |
| 2026-05-06 09:25 | 36.08179 | -115.14548 | 2100 ft | 0 kts | 248° |
| 2026-05-06 09:28 | 36.08173 | -115.14554 | 2100 ft | 3 kts | 210° |
| 2026-05-06 09:28 | 36.08122 | -115.14523 | 2100 ft | 15 kts | 147° |
| 2026-05-06 09:28 | 36.08056 | -115.14484 | 2099 ft | 0 kts | 162° |
| 2026-05-06 09:29 | 36.07999 | -115.14480 | 2099 ft | 17 kts | 183° |
| 2026-05-06 09:29 | 36.07855 | -115.14474 | 2098 ft | 25 kts | 162° |
| 2026-05-06 09:29 | 36.07756 | -115.14385 | 2099 ft | 19 kts | 95° |
| 2026-05-06 09:29 | 36.07753 | -115.14208 | 2097 ft | 23 kts | 90° |
| 2026-05-06 09:30 | 36.07753 | -115.13968 | 2096 ft | 33 kts | 89° |
| 2026-05-06 09:30 | 36.07753 | -115.13665 | 2095 ft | 29 kts | 91° |
| 2026-05-06 09:30 | 36.07749 | -115.13485 | 2093 ft | 20 kts | 90° |
| 2026-05-06 09:30 | 36.07753 | -115.13302 | 2090 ft | 23 kts | 90° |
| 2026-05-06 09:31 | 36.07753 | -115.13090 | 2084 ft | 28 kts | 90° |
| 2026-05-06 09:31 | 36.07753 | -115.12836 | 2073 ft | 27 kts | 90° |
| 2026-05-06 09:31 | 36.07753 | -115.12661 | 2066 ft | 21 kts | 90° |
| 2026-05-06 09:31 | 36.07650 | -115.12601 | 2065 ft | 18 kts | 218° |
| 2026-05-06 09:32 | 36.07638 | -115.12672 | 2068 ft | 7 kts | 271° |
| 2026-05-06 09:32 | 36.07638 | -115.12682 | 2069 ft | 0 kts | 271° |
| 2026-05-06 09:33 | 36.07640 | -115.12799 | 2073 ft | 47 kts | 270° |
| 2026-05-06 09:33 | 36.07639 | -115.13514 | 2092 ft | 119 kts | 270° |
| 2026-05-06 09:33 | 36.07638 | -115.14828 | 2148 ft | 176 kts | 269° |
| 2026-05-06 09:34 | 36.07650 | -115.16371 | 2772 ft | 185 kts | 268° |
| 2026-05-06 09:34 | 36.07651 | -115.17820 | 4155 ft | 161 kts | 269° |
| 2026-05-06 09:34 | 36.07650 | -115.19245 | 4733 ft | 174 kts | 269° |
| 2026-05-06 09:34 | 36.07608 | -115.20774 | 5425 ft | 178 kts | 262° |
| 2026-05-06 09:35 | 36.07542 | -115.21312 | 5661 ft | 181 kts | 261° |
| 2026-05-06 09:35 | 36.07334 | -115.22874 | 6354 ft | 186 kts | 261° |
| 2026-05-06 09:35 | 36.07034 | -115.24501 | 6854 ft | 204 kts | 245° |
| 2026-05-06 09:35 | 36.06097 | -115.25922 | 7287 ft | 227 kts | 216° |
| 2026-05-06 09:36 | 36.04608 | -115.26830 | 7704 ft | 252 kts | 202° |
| 2026-05-06 09:36 | 36.02895 | -115.27655 | 7783 ft | 273 kts | 202° |
| 2026-05-06 09:36 | 36.01073 | -115.28519 | 7870 ft | 283 kts | 202° |
| 2026-05-06 09:36 | 35.99218 | -115.29408 | 7967 ft | 290 kts | 206° |
| 2026-05-06 09:37 | 35.97441 | -115.30572 | 8685 ft | 289 kts | 210° |
| 2026-05-06 09:37 | 35.95648 | -115.31757 | 9593 ft | 296 kts | 209° |
| 2026-05-06 09:37 | 35.93802 | -115.32958 | 10415 ft | 304 kts | 209° |
| 2026-05-06 09:37 | 35.91896 | -115.34186 | 10837 ft | 325 kts | 209° |
| 2026-05-06 09:38 | 35.90054 | -115.35902 | 10798 ft | 339 kts | 231° |
| 2026-05-06 09:38 | 35.88894 | -115.38441 | 10865 ft | 349 kts | 255° |
| 2026-05-06 09:38 | 35.88579 | -115.41408 | 10936 ft | 349 kts | 275° |
| 2026-05-06 09:38 | 35.88652 | -115.44426 | 10963 ft | 355 kts | 273° |
| 2026-05-06 09:39 | 35.88704 | -115.47476 | 10985 ft | 356 kts | 273° |
| 2026-05-06 09:39 | 35.88761 | -115.50535 | 11001 ft | 357 kts | 274° |
| 2026-05-06 09:39 | 35.88821 | -115.53593 | 11009 ft | 357 kts | 274° |
| 2026-05-06 09:39 | 35.88880 | -115.56654 | 11191 ft | 359 kts | 274° |
| 2026-05-06 09:40 | 35.88939 | -115.59745 | 12021 ft | 360 kts | 273° |
| 2026-05-06 09:40 | 35.88998 | -115.62849 | 12770 ft | 364 kts | 274° |
| 2026-05-06 09:40 | 35.89115 | -115.69140 | 14147 ft | 374 kts | 273° |
| 2026-05-06 09:42 | 35.89149 | -115.70950 | 14506 ft | 377 kts | 273° |
| 2026-05-06 09:42 | 35.89207 | -115.74211 | 15164 ft | 381 kts | 273° |
| 2026-05-06 09:42 | 35.89266 | -115.77499 | 15787 ft | 386 kts | 273° |
| 2026-05-06 09:43 | 35.89324 | -115.80827 | 16413 ft | 390 kts | 273° |
| 2026-05-06 09:43 | 35.89382 | -115.84190 | 17032 ft | 394 kts | 274° |
| 2026-05-06 09:43 | 35.89440 | -115.87597 | 17645 ft | 399 kts | 274° |
| 2026-05-06 09:43 | 35.89650 | -115.91014 | 18207 ft | 400 kts | 285° |
| 2026-05-06 09:44 | 35.90604 | -115.94168 | 18714 ft | 397 kts | 303° |
| 2026-05-06 09:44 | 35.92252 | -115.96865 | 19227 ft | 394 kts | 316° |
| 2026-05-06 09:44 | 35.94126 | -115.99332 | 19760 ft | 397 kts | 317° |
| 2026-05-06 09:44 | 35.96048 | -116.01785 | 20308 ft | 398 kts | 317° |
| 2026-05-06 09:45 | 35.97995 | -116.04235 | 20855 ft | 400 kts | 318° |
| 2026-05-06 09:45 | 35.99966 | -116.06689 | 21411 ft | 402 kts | 318° |
| 2026-05-06 09:45 | 36.01948 | -116.09146 | 21933 ft | 404 kts | 318° |
| 2026-05-06 09:45 | 36.03924 | -116.11593 | 22427 ft | 407 kts | 319° |
| 2026-05-06 09:46 | 36.05930 | -116.14077 | 22913 ft | 410 kts | 319° |
| 2026-05-06 09:46 | 36.07947 | -116.16575 | 23446 ft | 411 kts | 319° |
| 2026-05-06 09:46 | 36.09977 | -116.19091 | 23864 ft | 414 kts | 319° |
| 2026-05-06 09:46 | 36.12011 | -116.21614 | 24242 ft | 416 kts | 319° |
| 2026-05-06 09:47 | 36.14061 | -116.24160 | 24652 ft | 419 kts | 319° |
| 2026-05-06 09:47 | 36.16123 | -116.26721 | 25019 ft | 421 kts | 319° |
| 2026-05-06 09:47 | 36.18199 | -116.29302 | 25370 ft | 424 kts | 319° |
| 2026-05-06 09:47 | 36.20290 | -116.31904 | 25726 ft | 427 kts | 319° |
| 2026-05-06 09:48 | 36.22393 | -116.34524 | 26092 ft | 430 kts | 319° |
| 2026-05-06 09:48 | 36.24510 | -116.37161 | 26460 ft | 432 kts | 319° |
| 2026-05-06 09:48 | 36.25916 | -116.38915 | 26691 ft | 434 kts | 319° |
| 2026-05-06 09:48 | 36.28055 | -116.41560 | 27044 ft | 436 kts | 321° |
| 2026-05-06 09:49 | 36.30251 | -116.44161 | 27379 ft | 438 kts | 321° |
| 2026-05-06 09:49 | 36.33176 | -116.47639 | 27843 ft | 441 kts | 321° |
| 2026-05-06 09:49 | 36.35396 | -116.50288 | 28161 ft | 444 kts | 321° |
| 2026-05-06 09:49 | 36.37630 | -116.52956 | 28501 ft | 447 kts | 321° |
| 2026-05-06 09:50 | 36.39874 | -116.55637 | 28832 ft | 449 kts | 321° |
| 2026-05-06 09:50 | 36.41397 | -116.57460 | 29025 ft | 451 kts | 321° |
| 2026-05-06 09:50 | 36.43667 | -116.60176 | 29352 ft | 453 kts | 322° |
| 2026-05-06 09:50 | 36.45984 | -116.62818 | 29656 ft | 455 kts | 323° |
| 2026-05-06 09:51 | 36.48323 | -116.65474 | 30081 ft | 455 kts | 323° |
| 2026-05-06 09:51 | 36.50617 | -116.68089 | 30503 ft | 453 kts | 323° |
| 2026-05-06 09:51 | 36.52937 | -116.70738 | 30899 ft | 451 kts | 323° |
| 2026-05-06 09:51 | 36.55237 | -116.73375 | 31280 ft | 450 kts | 323° |
| 2026-05-06 09:52 | 36.57544 | -116.76002 | 31653 ft | 448 kts | 324° |
| 2026-05-06 09:52 | 36.59838 | -116.78616 | 32058 ft | 447 kts | 324° |
| 2026-05-06 09:52 | 36.62135 | -116.81235 | 32411 ft | 446 kts | 324° |
| 2026-05-06 09:52 | 36.64409 | -116.83833 | 32790 ft | 445 kts | 324° |
| 2026-05-06 09:53 | 36.66678 | -116.86434 | 33216 ft | 442 kts | 324° |
| 2026-05-06 09:53 | 36.68941 | -116.89020 | 33523 ft | 442 kts | 324° |
| 2026-05-06 09:53 | 36.71205 | -116.91604 | 33820 ft | 441 kts | 324° |
| 2026-05-06 09:53 | 36.73511 | -116.94141 | 33891 ft | 437 kts | 331° |
| 2026-05-06 09:54 | 36.76095 | -116.95964 | 33933 ft | 423 kts | 339° |
| 2026-05-06 09:54 | 36.78712 | -116.97673 | 33895 ft | 426 kts | 338° |
| 2026-05-06 09:54 | 36.83966 | -117.01098 | 33910 ft | 425 kts | 338° |
| 2026-05-06 09:55 | 36.89189 | -117.04489 | 33932 ft | 424 kts | 339° |
| 2026-05-06 09:55 | 36.94423 | -117.07886 | 33929 ft | 424 kts | 339° |
| 2026-05-06 09:56 | 36.99625 | -117.11273 | 33930 ft | 424 kts | 339° |
| 2026-05-06 09:56 | 37.04863 | -117.14687 | 33939 ft | 424 kts | 338° |
| 2026-05-06 09:57 | 37.10078 | -117.18091 | 33914 ft | 424 kts | 338° |
| 2026-05-06 09:57 | 37.15339 | -117.21531 | 33942 ft | 426 kts | 338° |
| 2026-05-06 09:58 | 37.20591 | -117.24970 | 33937 ft | 425 kts | 338° |
| 2026-05-06 09:58 | 37.25836 | -117.28408 | 33953 ft | 426 kts | 338° |
| 2026-05-06 09:59 | 37.30983 | -117.32104 | 33953 ft | 431 kts | 329° |
| 2026-05-06 09:59 | 37.35833 | -117.36478 | 33954 ft | 432 kts | 330° |
| 2026-05-06 10:00 | 37.40711 | -117.40891 | 33964 ft | 432 kts | 330° |
| 2026-05-06 10:00 | 37.45591 | -117.45322 | 33967 ft | 432 kts | 330° |
| 2026-05-06 10:01 | 37.50455 | -117.49746 | 33952 ft | 432 kts | 330° |
| 2026-05-06 10:01 | 37.55335 | -117.54192 | 33962 ft | 432 kts | 330° |
| 2026-05-06 10:02 | 37.60200 | -117.58633 | 33966 ft | 431 kts | 330° |
| 2026-05-06 10:02 | 37.65063 | -117.63078 | 33966 ft | 431 kts | 330° |
| 2026-05-06 10:03 | 37.69914 | -117.67520 | 33973 ft | 432 kts | 330° |
| 2026-05-06 10:03 | 37.74745 | -117.71952 | 33978 ft | 430 kts | 330° |
| 2026-05-06 10:04 | 37.79583 | -117.76395 | 33977 ft | 430 kts | 330° |
| 2026-05-06 10:04 | 37.84427 | -117.80852 | 33987 ft | 430 kts | 330° |
| 2026-05-06 10:05 | 37.89264 | -117.85311 | 34003 ft | 430 kts | 330° |
| 2026-05-06 10:05 | 37.94072 | -117.89749 | 33980 ft | 427 kts | 330° |
| 2026-05-06 10:06 | 37.98889 | -117.94204 | 33991 ft | 428 kts | 330° |
| 2026-05-06 10:06 | 38.03699 | -117.98660 | 33982 ft | 428 kts | 330° |
| 2026-05-06 10:07 | 38.08475 | -118.03091 | 33983 ft | 427 kts | 330° |
| 2026-05-06 10:07 | 38.13258 | -118.07537 | 33962 ft | 427 kts | 330° |
| 2026-05-06 10:08 | 38.18054 | -118.12001 | 33990 ft | 428 kts | 329° |
| 2026-05-06 10:08 | 38.22859 | -118.16481 | 33983 ft | 428 kts | 329° |
| 2026-05-06 10:09 | 38.27616 | -118.20924 | 33990 ft | 429 kts | 329° |
| 2026-05-06 10:09 | 38.32411 | -118.25411 | 33987 ft | 428 kts | 329° |
| 2026-05-06 10:10 | 38.37212 | -118.29909 | 34003 ft | 428 kts | 329° |
| 2026-05-06 10:10 | 38.42012 | -118.34416 | 34032 ft | 430 kts | 329° |
| 2026-05-06 10:11 | 38.46833 | -118.38949 | 34041 ft | 430 kts | 329° |
| 2026-05-06 10:11 | 38.51644 | -118.43482 | 34074 ft | 431 kts | 329° |
| 2026-05-06 10:12 | 38.56462 | -118.48028 | 34060 ft | 430 kts | 329° |
| 2026-05-06 10:12 | 38.61295 | -118.52595 | 34094 ft | 432 kts | 329° |
| 2026-05-06 10:13 | 38.66098 | -118.57143 | 34090 ft | 432 kts | 329° |
| 2026-05-06 10:13 | 38.68509 | -118.59427 | 33989 ft | 431 kts | 329° |
| 2026-05-06 10:13 | 38.70916 | -118.61711 | 33991 ft | 432 kts | 329° |
| 2026-05-06 10:14 | 38.75748 | -118.66302 | 33982 ft | 433 kts | 329° |
| 2026-05-06 10:14 | 38.80597 | -118.70917 | 33991 ft | 434 kts | 329° |
| 2026-05-06 10:15 | 38.85417 | -118.75512 | 33991 ft | 434 kts | 328° |
| 2026-05-06 10:15 | 38.90264 | -118.80141 | 33998 ft | 434 kts | 328° |
| 2026-05-06 10:16 | 38.95108 | -118.84775 | 34007 ft | 435 kts | 328° |
| 2026-05-06 10:16 | 38.99964 | -118.89429 | 34000 ft | 435 kts | 328° |
| 2026-05-06 10:17 | 39.04809 | -118.94079 | 34007 ft | 435 kts | 328° |
| 2026-05-06 10:17 | 39.09658 | -118.98740 | 33994 ft | 435 kts | 328° |
| 2026-05-06 10:18 | 39.14500 | -119.03403 | 34007 ft | 435 kts | 328° |
| 2026-05-06 10:18 | 39.19349 | -119.08080 | 34015 ft | 435 kts | 328° |
| 2026-05-06 10:19 | 39.20133 | -119.08835 | 33998 ft | 435 kts | 329° |
| 2026-05-06 10:21 | 39.23646 | -119.11176 | 34013 ft | 423 kts | 346° |
| 2026-05-06 10:21 | 39.29263 | -119.13554 | 33982 ft | 424 kts | 346° |
| 2026-05-06 10:22 | 39.34887 | -119.15886 | 33992 ft | 425 kts | 346° |
| 2026-05-06 10:22 | 39.40523 | -119.18193 | 33990 ft | 425 kts | 346° |
| 2026-05-06 10:23 | 39.46165 | -119.20502 | 33984 ft | 425 kts | 346° |
| 2026-05-06 10:23 | 39.51774 | -119.22801 | 33979 ft | 425 kts | 346° |
| 2026-05-06 10:24 | 39.57414 | -119.25116 | 33956 ft | 426 kts | 346° |
| 2026-05-06 10:24 | 39.63088 | -119.27449 | 33988 ft | 428 kts | 346° |
| 2026-05-06 10:25 | 39.68761 | -119.29786 | 33988 ft | 428 kts | 346° |
| 2026-05-06 10:25 | 39.74444 | -119.32132 | 33988 ft | 428 kts | 346° |
| 2026-05-06 10:26 | 39.79001 | -119.34016 | 33991 ft | 427 kts | 346° |
| 2026-05-06 10:26 | 39.84653 | -119.36354 | 33990 ft | 427 kts | 346° |
| 2026-05-06 10:27 | 39.90331 | -119.38709 | 33986 ft | 427 kts | 346° |
| 2026-05-06 10:27 | 39.95995 | -119.41062 | 33995 ft | 427 kts | 346° |
| 2026-05-06 10:28 | 40.01631 | -119.43406 | 33998 ft | 427 kts | 346° |
| 2026-05-06 10:28 | 40.07281 | -119.45761 | 34000 ft | 427 kts | 346° |
| 2026-05-06 10:29 | 40.12936 | -119.48125 | 33997 ft | 426 kts | 346° |
| 2026-05-06 10:29 | 40.18587 | -119.50487 | 33992 ft | 426 kts | 346° |
| 2026-05-06 10:30 | 40.24234 | -119.52853 | 33988 ft | 425 kts | 346° |
| 2026-05-06 10:30 | 40.29867 | -119.55217 | 33990 ft | 427 kts | 345° |
| 2026-05-06 10:31 | 40.35528 | -119.57598 | 33989 ft | 427 kts | 345° |
| 2026-05-06 10:31 | 40.41183 | -119.59981 | 34006 ft | 427 kts | 345° |
| 2026-05-06 10:32 | 40.46806 | -119.62354 | 33993 ft | 426 kts | 345° |
| 2026-05-06 10:32 | 40.52456 | -119.64741 | 34004 ft | 426 kts | 345° |
| 2026-05-06 10:33 | 40.58099 | -119.67130 | 34005 ft | 426 kts | 345° |
| 2026-05-06 10:33 | 40.63751 | -119.69529 | 34001 ft | 426 kts | 345° |
| 2026-05-06 10:34 | 40.69395 | -119.71927 | 34015 ft | 426 kts | 345° |
| 2026-05-06 10:34 | 40.75005 | -119.74315 | 34015 ft | 426 kts | 345° |
| 2026-05-06 10:35 | 40.80644 | -119.76720 | 34011 ft | 426 kts | 345° |
| 2026-05-06 10:35 | 40.86288 | -119.79132 | 34016 ft | 426 kts | 345° |
| 2026-05-06 10:36 | 40.91894 | -119.81531 | 34024 ft | 426 kts | 345° |
| 2026-05-06 10:36 | 40.97534 | -119.83950 | 34014 ft | 426 kts | 344° |
| 2026-05-06 10:37 | 41.03161 | -119.86367 | 34025 ft | 426 kts | 344° |
| 2026-05-06 10:37 | 41.08803 | -119.88795 | 34032 ft | 426 kts | 344° |
| 2026-05-06 10:38 | 41.12583 | -119.90425 | 34019 ft | 426 kts | 344° |
| 2026-05-06 10:38 | 41.17922 | -119.92728 | 34034 ft | 427 kts | 344° |
| 2026-05-06 10:39 | 41.23558 | -119.95165 | 34035 ft | 427 kts | 344° |
| 2026-05-06 10:39 | 41.29199 | -119.97610 | 34018 ft | 427 kts | 344° |
| 2026-05-06 10:40 | 41.34868 | -120.00069 | 34045 ft | 429 kts | 344° |
| 2026-05-06 10:40 | 41.40537 | -120.02533 | 34038 ft | 428 kts | 344° |
| 2026-05-06 10:41 | 41.46173 | -120.04988 | 34031 ft | 429 kts | 343° |
| 2026-05-06 10:41 | 41.51838 | -120.07460 | 34047 ft | 428 kts | 344° |
| 2026-05-06 10:42 | 41.57491 | -120.09931 | 34054 ft | 428 kts | 343° |
| 2026-05-06 10:42 | 41.63150 | -120.12410 | 34045 ft | 428 kts | 343° |
| 2026-05-06 10:43 | 41.68827 | -120.14901 | 34058 ft | 429 kts | 343° |
| 2026-05-06 10:44 | 41.75823 | -120.17976 | 34061 ft | 429 kts | 343° |
| 2026-05-06 10:44 | 41.81505 | -120.20480 | 34068 ft | 430 kts | 343° |
| 2026-05-06 10:45 | 41.87156 | -120.22975 | 34093 ft | 430 kts | 343° |
| 2026-05-06 10:45 | 41.92842 | -120.25488 | 34095 ft | 430 kts | 343° |
| 2026-05-06 10:46 | 41.98527 | -120.28009 | 34131 ft | 431 kts | 343° |
| 2026-05-06 10:46 | 42.04211 | -120.30533 | 34148 ft | 429 kts | 343° |
| 2026-05-06 10:47 | 42.09878 | -120.33052 | 34151 ft | 428 kts | 343° |
| 2026-05-06 10:47 | 42.15505 | -120.35559 | 34152 ft | 428 kts | 343° |
| 2026-05-06 10:48 | 42.21157 | -120.38082 | 34094 ft | 428 kts | 343° |
| 2026-05-06 10:48 | 42.26814 | -120.40611 | 34098 ft | 429 kts | 343° |
| 2026-05-06 10:49 | 42.32479 | -120.43149 | 34097 ft | 428 kts | 343° |
| 2026-05-06 10:49 | 42.38140 | -120.45688 | 34104 ft | 429 kts | 343° |
| 2026-05-06 10:50 | 42.43799 | -120.48233 | 34096 ft | 429 kts | 343° |
| 2026-05-06 10:50 | 42.49445 | -120.50859 | 34080 ft | 430 kts | 337° |
| 2026-05-06 10:51 | 42.54872 | -120.54267 | 34085 ft | 430 kts | 338° |
| 2026-05-06 10:51 | 42.60341 | -120.57585 | 34107 ft | 430 kts | 338° |
| 2026-05-06 10:52 | 42.65789 | -120.60878 | 34092 ft | 429 kts | 338° |
| 2026-05-06 10:52 | 42.70322 | -120.63621 | 34108 ft | 430 kts | 338° |
| 2026-05-06 10:53 | 42.76668 | -120.67470 | 34090 ft | 429 kts | 338° |
| 2026-05-06 10:53 | 42.82124 | -120.70786 | 34094 ft | 430 kts | 338° |
| 2026-05-06 10:54 | 42.87585 | -120.74111 | 34091 ft | 430 kts | 338° |
| 2026-05-06 10:54 | 42.92156 | -120.76898 | 34088 ft | 430 kts | 338° |
| 2026-05-06 10:55 | 42.97622 | -120.80238 | 34090 ft | 430 kts | 338° |
| 2026-05-06 10:55 | 43.03054 | -120.83564 | 34092 ft | 431 kts | 337° |
| 2026-05-06 10:56 | 43.08529 | -120.86922 | 34089 ft | 431 kts | 337° |
| 2026-05-06 10:56 | 43.13981 | -120.90273 | 34098 ft | 431 kts | 337° |
| 2026-05-06 10:57 | 43.19445 | -120.93638 | 34091 ft | 431 kts | 337° |
| 2026-05-06 10:57 | 43.24916 | -120.97014 | 34093 ft | 431 kts | 337° |
| 2026-05-06 10:58 | 43.30386 | -121.00395 | 34114 ft | 431 kts | 337° |
| 2026-05-06 10:58 | 43.35830 | -121.03769 | 34090 ft | 429 kts | 337° |
| 2026-05-06 10:59 | 43.41243 | -121.07128 | 34084 ft | 430 kts | 336° |
| 2026-05-06 10:59 | 43.46696 | -121.10520 | 34074 ft | 430 kts | 336° |
| 2026-05-06 11:00 | 43.52144 | -121.13915 | 34065 ft | 430 kts | 336° |
| 2026-05-06 11:00 | 43.57585 | -121.17313 | 34069 ft | 430 kts | 336° |
| 2026-05-06 11:01 | 43.63037 | -121.20723 | 34070 ft | 430 kts | 336° |
| 2026-05-06 11:01 | 43.68490 | -121.24142 | 34064 ft | 431 kts | 336° |
| 2026-05-06 11:02 | 43.73950 | -121.27569 | 34041 ft | 430 kts | 336° |
| 2026-05-06 11:02 | 43.79398 | -121.31004 | 34063 ft | 431 kts | 336° |
| 2026-05-06 11:03 | 43.84809 | -121.34428 | 34071 ft | 431 kts | 336° |
| 2026-05-06 11:03 | 43.90261 | -121.37884 | 34072 ft | 430 kts | 336° |
| 2026-05-06 11:04 | 43.95715 | -121.41348 | 34077 ft | 431 kts | 335° |
| 2026-05-06 11:04 | 44.01170 | -121.44818 | 34076 ft | 431 kts | 335° |
| 2026-05-06 11:05 | 44.06607 | -121.48285 | 34076 ft | 430 kts | 335° |
| 2026-05-06 11:05 | 44.12046 | -121.51761 | 34069 ft | 430 kts | 335° |
| 2026-05-06 11:06 | 44.17494 | -121.55249 | 34060 ft | 431 kts | 335° |
| 2026-05-06 11:06 | 44.22934 | -121.58739 | 34053 ft | 430 kts | 335° |
| 2026-05-06 11:07 | 44.28368 | -121.62232 | 34053 ft | 430 kts | 335° |
| 2026-05-06 11:07 | 44.33809 | -121.65737 | 34056 ft | 430 kts | 335° |
| 2026-05-06 11:08 | 44.39212 | -121.69225 | 34053 ft | 430 kts | 335° |
| 2026-05-06 11:08 | 44.44652 | -121.72744 | 34056 ft | 430 kts | 335° |
| 2026-05-06 11:09 | 44.50088 | -121.76268 | 34054 ft | 431 kts | 335° |
| 2026-05-06 11:09 | 44.55538 | -121.79807 | 34066 ft | 432 kts | 335° |
| 2026-05-06 11:10 | 44.60990 | -121.83355 | 34079 ft | 432 kts | 335° |
| 2026-05-06 11:10 | 44.66446 | -121.86914 | 34081 ft | 432 kts | 334° |
| 2026-05-06 11:11 | 44.71853 | -121.90448 | 34088 ft | 432 kts | 334° |
| 2026-05-06 11:11 | 44.77308 | -121.94020 | 34093 ft | 432 kts | 334° |
| 2026-05-06 11:12 | 44.82750 | -121.97592 | 34088 ft | 430 kts | 334° |
| 2026-05-06 11:12 | 44.88191 | -122.01170 | 34097 ft | 432 kts | 334° |
| 2026-05-06 11:13 | 44.93626 | -122.04752 | 34125 ft | 432 kts | 334° |
| 2026-05-06 11:13 | 44.99042 | -122.08329 | 34121 ft | 432 kts | 334° |
| 2026-05-06 11:14 | 45.04488 | -122.11934 | 34125 ft | 433 kts | 334° |
| 2026-05-06 11:14 | 45.09946 | -122.15554 | 34134 ft | 433 kts | 334° |
| 2026-05-06 11:15 | 45.15397 | -122.19176 | 34135 ft | 432 kts | 334° |
| 2026-05-06 11:15 | 45.20839 | -122.22800 | 34133 ft | 432 kts | 334° |
| 2026-05-06 11:16 | 45.26292 | -122.26438 | 34139 ft | 434 kts | 333° |
| 2026-05-06 11:16 | 45.31716 | -122.30069 | 34134 ft | 434 kts | 333° |
| 2026-05-06 11:17 | 45.37177 | -122.33729 | 34128 ft | 434 kts | 333° |
| 2026-05-06 11:17 | 45.42632 | -122.37394 | 34136 ft | 435 kts | 333° |
| 2026-05-06 11:18 | 45.48105 | -122.41079 | 34136 ft | 435 kts | 333° |
| 2026-05-06 11:18 | 45.53578 | -122.44772 | 34139 ft | 435 kts | 333° |
| 2026-05-06 11:19 | 45.59057 | -122.48476 | 34132 ft | 435 kts | 333° |
| 2026-05-06 11:19 | 45.64536 | -122.52189 | 34149 ft | 437 kts | 333° |
| 2026-05-06 11:20 | 45.70011 | -122.55908 | 34160 ft | 437 kts | 333° |
| 2026-05-06 11:20 | 45.75606 | -122.59276 | 34123 ft | 439 kts | 346° |
| 2026-05-06 11:21 | 45.81610 | -122.60812 | 34133 ft | 442 kts | 347° |
| 2026-05-06 11:21 | 45.87671 | -122.62335 | 34154 ft | 443 kts | 347° |
| 2026-05-06 11:22 | 45.93737 | -122.63841 | 34146 ft | 443 kts | 347° |
| 2026-05-06 11:22 | 45.96764 | -122.64593 | 33693 ft | 438 kts | 347° |
| 2026-05-06 11:22 | 45.99781 | -122.65343 | 32923 ft | 439 kts | 347° |
| 2026-05-06 11:22 | 46.02791 | -122.66092 | 32165 ft | 440 kts | 347° |
| 2026-05-06 11:23 | 46.05808 | -122.66843 | 31422 ft | 440 kts | 347° |
| 2026-05-06 11:23 | 46.08837 | -122.67584 | 30663 ft | 442 kts | 349° |
| 2026-05-06 11:23 | 46.11889 | -122.68184 | 29657 ft | 447 kts | 349° |
| 2026-05-06 11:23 | 46.14941 | -122.68784 | 28722 ft | 449 kts | 349° |
| 2026-05-06 11:24 | 46.18036 | -122.69403 | 28126 ft | 444 kts | 349° |
| 2026-05-06 11:24 | 46.21079 | -122.70015 | 27513 ft | 438 kts | 349° |
| 2026-05-06 11:24 | 46.24121 | -122.70628 | 26870 ft | 443 kts | 349° |
| 2026-05-06 11:24 | 46.27189 | -122.71248 | 26227 ft | 446 kts | 349° |
| 2026-05-06 11:25 | 46.30260 | -122.71869 | 25594 ft | 444 kts | 349° |
| 2026-05-06 11:25 | 46.33294 | -122.72250 | 24893 ft | 443 kts | 356° |
| 2026-05-06 11:25 | 46.36363 | -122.72370 | 24228 ft | 442 kts | 356° |
| 2026-05-06 11:25 | 46.39433 | -122.72484 | 23605 ft | 439 kts | 356° |
| 2026-05-06 11:26 | 46.42487 | -122.72595 | 22871 ft | 437 kts | 356° |
| 2026-05-06 11:26 | 46.45514 | -122.72705 | 22248 ft | 433 kts | 356° |
| 2026-05-06 11:26 | 46.48518 | -122.72813 | 21645 ft | 429 kts | 356° |
| 2026-05-06 11:26 | 46.51486 | -122.72919 | 21035 ft | 425 kts | 356° |
| 2026-05-06 11:27 | 46.54443 | -122.73026 | 20431 ft | 422 kts | 356° |
| 2026-05-06 11:27 | 46.57365 | -122.73131 | 19835 ft | 419 kts | 356° |
| 2026-05-06 11:27 | 46.60261 | -122.73236 | 19248 ft | 416 kts | 356° |
| 2026-05-06 11:27 | 46.63141 | -122.73340 | 18896 ft | 408 kts | 356° |
| 2026-05-06 11:28 | 46.65910 | -122.73440 | 18607 ft | 398 kts | 356° |
| 2026-05-06 11:28 | 46.68642 | -122.73539 | 18379 ft | 388 kts | 356° |
| 2026-05-06 11:28 | 46.71314 | -122.73636 | 18150 ft | 379 kts | 356° |
| 2026-05-06 11:28 | 46.73906 | -122.73730 | 17975 ft | 368 kts | 356° |
| 2026-05-06 11:29 | 46.76437 | -122.73774 | 17708 ft | 361 kts | 1° |
| 2026-05-06 11:29 | 46.78887 | -122.72881 | 17259 ft | 366 kts | 22° |
| 2026-05-06 11:29 | 46.81005 | -122.70843 | 16910 ft | 365 kts | 36° |
| 2026-05-06 11:29 | 46.82976 | -122.68534 | 16536 ft | 362 kts | 36° |
| 2026-05-06 11:30 | 46.84940 | -122.66267 | 16110 ft | 360 kts | 35° |
| 2026-05-06 11:30 | 46.86917 | -122.64029 | 15727 ft | 357 kts | 35° |
| 2026-05-06 11:30 | 46.88863 | -122.61813 | 15542 ft | 348 kts | 35° |
| 2026-05-06 11:30 | 46.90730 | -122.59681 | 15353 ft | 340 kts | 35° |
| 2026-05-06 11:31 | 46.92573 | -122.57574 | 15184 ft | 332 kts | 35° |
| 2026-05-06 11:31 | 46.94546 | -122.55929 | 14817 ft | 324 kts | 15° |
| 2026-05-06 11:31 | 46.96687 | -122.55002 | 14574 ft | 319 kts | 14° |
| 2026-05-06 11:31 | 46.98794 | -122.54049 | 14288 ft | 315 kts | 14° |
| 2026-05-06 11:32 | 47.00892 | -122.53115 | 13970 ft | 313 kts | 14° |
| 2026-05-06 11:32 | 47.02971 | -122.52198 | 13613 ft | 312 kts | 14° |
| 2026-05-06 11:32 | 47.05043 | -122.51289 | 13268 ft | 310 kts | 14° |
| 2026-05-06 11:32 | 47.07072 | -122.50400 | 12945 ft | 307 kts | 14° |
| 2026-05-06 11:33 | 47.09152 | -122.49786 | 12609 ft | 302 kts | 3° |
| 2026-05-06 11:33 | 47.11237 | -122.49457 | 12303 ft | 300 kts | 4° |
| 2026-05-06 11:33 | 47.13292 | -122.49088 | 12008 ft | 297 kts | 5° |
| 2026-05-06 11:33 | 47.15332 | -122.48702 | 11697 ft | 294 kts | 5° |
| 2026-05-06 11:34 | 47.17353 | -122.48310 | 11394 ft | 292 kts | 5° |
| 2026-05-06 11:34 | 47.19340 | -122.47950 | 11093 ft | 290 kts | 3° |
| 2026-05-06 11:34 | 47.21348 | -122.47654 | 10750 ft | 289 kts | 3° |
| 2026-05-06 11:34 | 47.23347 | -122.47354 | 10470 ft | 287 kts | 4° |
| 2026-05-06 11:35 | 47.25327 | -122.47053 | 10178 ft | 285 kts | 4° |
| 2026-05-06 11:35 | 47.27293 | -122.46752 | 9871 ft | 283 kts | 4° |
| 2026-05-06 11:35 | 47.29250 | -122.46452 | 9544 ft | 281 kts | 4° |
| 2026-05-06 11:35 | 47.31181 | -122.46154 | 9246 ft | 279 kts | 4° |
| 2026-05-06 11:36 | 47.33103 | -122.45858 | 8955 ft | 276 kts | 4° |
| 2026-05-06 11:36 | 47.35007 | -122.45569 | 8660 ft | 273 kts | 2° |
| 2026-05-06 11:36 | 47.36893 | -122.45525 | 8353 ft | 269 kts | 358° |
| 2026-05-06 11:36 | 47.38743 | -122.45519 | 8063 ft | 262 kts | 358° |
| 2026-05-06 11:37 | 47.40537 | -122.45505 | 7802 ft | 254 kts | 358° |
| 2026-05-06 11:37 | 47.42299 | -122.45517 | 7530 ft | 253 kts | 358° |
| 2026-05-06 11:37 | 47.44055 | -122.45526 | 7271 ft | 250 kts | 358° |
| 2026-05-06 11:37 | 47.45777 | -122.45530 | 7023 ft | 245 kts | 358° |
| 2026-05-06 11:38 | 47.47420 | -122.45533 | 6773 ft | 238 kts | 358° |
| 2026-05-06 11:38 | 47.49052 | -122.45535 | 6518 ft | 231 kts | 358° |
| 2026-05-06 11:38 | 47.50638 | -122.45537 | 6261 ft | 225 kts | 358° |
| 2026-05-06 11:38 | 47.52200 | -122.45561 | 6093 ft | 225 kts | 357° |
| 2026-05-06 11:39 | 47.53769 | -122.45600 | 5985 ft | 226 kts | 357° |
| 2026-05-06 11:39 | 47.55347 | -122.45638 | 5893 ft | 226 kts | 357° |
| 2026-05-06 11:39 | 47.56917 | -122.45677 | 5783 ft | 226 kts | 358° |
| 2026-05-06 11:39 | 47.58487 | -122.45682 | 5669 ft | 224 kts | 4° |
| 2026-05-06 11:40 | 47.59871 | -122.44831 | 5567 ft | 211 kts | 39° |
| 2026-05-06 11:40 | 47.60740 | -122.43191 | 5393 ft | 198 kts | 61° |
| 2026-05-06 11:40 | 47.61135 | -122.41280 | 5124 ft | 192 kts | 83° |
| 2026-05-06 11:40 | 47.61090 | -122.39336 | 4859 ft | 185 kts | 96° |
| 2026-05-06 11:41 | 47.60963 | -122.37461 | 4585 ft | 183 kts | 96° |
| 2026-05-06 11:41 | 47.60845 | -122.35565 | 4314 ft | 186 kts | 96° |
| 2026-05-06 11:41 | 47.60718 | -122.33680 | 4038 ft | 178 kts | 104° |
| 2026-05-06 11:41 | 47.60391 | -122.32603 | 3789 ft | 170 kts | 131° |
| 2026-05-06 11:42 | 47.59125 | -122.31481 | 3397 ft | 159 kts | 165° |
| 2026-05-06 11:42 | 47.58089 | -122.31167 | 3179 ft | 147 kts | 174° |
| 2026-05-06 11:42 | 47.57094 | -122.31055 | 2953 ft | 141 kts | 178° |
| 2026-05-06 11:42 | 47.56124 | -122.31018 | 2721 ft | 138 kts | 180° |
| 2026-05-06 11:43 | 47.55170 | -122.31025 | 2496 ft | 136 kts | 180° |
| 2026-05-06 11:43 | 47.54230 | -122.31035 | 2277 ft | 134 kts | 180° |
| 2026-05-06 11:43 | 47.53596 | -122.31038 | 2102 ft | 136 kts | 181° |
| 2026-05-06 11:44 | 47.51762 | -122.31057 | 1673 ft | 137 kts | 181° |
| 2026-05-06 11:44 | 47.50816 | -122.31064 | 1448 ft | 138 kts | 182° |
| 2026-05-06 11:44 | 47.49860 | -122.31072 | 1227 ft | 138 kts | 180° |
| 2026-05-06 11:44 | 47.48898 | -122.31080 | 1009 ft | 138 kts | 180° |
| 2026-05-06 11:45 | 47.47942 | -122.31087 | 785 ft | 137 kts | 181° |
| 2026-05-06 11:45 | 47.46991 | -122.31093 | 621 ft | 136 kts | 181° |
| 2026-05-06 11:45 | 47.46049 | -122.31101 | 434 ft | 132 kts | 180° |
| 2026-05-06 11:45 | 47.45291 | -122.31113 | 411 ft | 75 kts | 180° |
| 2026-05-06 11:46 | 47.44939 | -122.31111 | 407 ft | 35 kts | 178° |
| 2026-05-06 11:46 | 47.44703 | -122.31100 | 400 ft | 37 kts | 170° |
| 2026-05-06 11:46 | 47.44504 | -122.30976 | 392 ft | 25 kts | 154° |
| 2026-05-06 11:46 | 47.44393 | -122.30889 | 394 ft | 17 kts | 135° |
| 2026-05-06 11:47 | 47.44346 | -122.30741 | 394 ft | 11 kts | 107° |
| 2026-05-06 11:47 | 47.44316 | -122.30633 | 395 ft | 12 kts | 162° |
| 2026-05-06 11:47 | 47.44226 | -122.30637 | 391 ft | 16 kts | 181° |
| 2026-05-06 11:47 | 47.44098 | -122.30637 | 388 ft | 20 kts | 180° |
| 2026-05-06 11:48 | 47.43994 | -122.30560 | 387 ft | 18 kts | 93° |
| 2026-05-06 11:48 | 47.43989 | -122.30384 | 388 ft | 15 kts | 87° |
| 2026-05-06 11:48 | 47.44000 | -122.30334 | 389 ft | 0 kts | 56° |
| 2026-05-06 11:48 | 47.44007 | -122.30320 | 389 ft | 6 kts | 51° |
| 2026-05-06 11:49 | 47.44076 | -122.30298 | 391 ft | 8 kts | 339° |
| 2026-05-06 11:49 | 47.44090 | -122.30314 | 391 ft | 0 kts | 317° |